Time;durP1;ratioP1;P1;durP2;ratioP2;P2;SDS_P1;SDS_P2;PMS_P1;PMS_P2;Temp;Humidity;BMP_temperature;BMP_pressure;BME280_temperature;BME280_humidity;BME280_pressure;Samples;Min_cycle;Max_cycle;Signal;HPM_P1;HPM_P2
2023/01/17 00:01:43;;;;;;;11.57;8.25;;;5.80;86.70;;;;;;5049419;28;20021;-61
2023/01/17 00:09:52;;;;;;;12.98;8.90;;;5.80;87.20;;;;;;5053842;28;20035;-57
2023/01/17 00:12:19;;;;;;;14.30;8.45;;;5.80;86.50;;;;;;5048896;28;20037;-60
2023/01/17 00:14:46;;;;;;;12.10;8.93;;;5.80;86.50;;;;;;5045109;28;20114;-60
2023/01/17 00:17:12;;;;;;;11.18;7.75;;;5.80;86.70;;;;;;5055770;28;20107;-51
2023/01/17 01:34:15;;;;;;;10.75;6.10;;;5.60;86.20;;;;;;5044771;28;20163;-59
2023/01/17 01:36:40;;;;;;;9.93;6.78;;;5.70;86.00;;;;;;5051746;28;20111;-57
2023/01/17 01:39:07;;;;;;;8.48;6.00;;;5.70;85.60;;;;;;5051726;28;20040;-56
2023/01/17 01:41:32;;;;;;;8.40;6.43;;;5.70;85.30;;;;;;5050204;28;20025;-56
2023/01/17 01:43:58;;;;;;;8.77;6.47;;;5.70;85.00;;;;;;5051423;28;20159;-57
2023/01/17 01:46:37;;;;;;;10.82;7.30;;;5.70;84.90;;;;;;5051169;28;20021;-50
2023/01/17 01:49:17;;;;;;;13.43;7.93;;;5.70;84.60;;;;;;5063828;28;20032;-50
2023/01/17 01:51:59;;;;;;;12.13;7.18;;;5.70;84.50;;;;;;5041419;28;20033;-53
2023/01/17 01:54:35;;;;;;;14.32;7.82;;;5.60;84.50;;;;;;5047142;28;20110;-52
2023/01/17 01:57:03;;;;;;;9.25;7.00;;;5.60;85.30;;;;;;5049364;28;20039;-54
2023/01/17 01:59:31;;;;;;;10.48;7.25;;;5.50;84.90;;;;;;5050741;28;20025;-53
2023/01/17 02:01:57;;;;;;;12.50;8.23;;;5.60;85.00;;;;;;5044630;28;20030;-56
2023/01/17 02:04:25;;;;;;;8.73;6.22;;;5.50;84.90;;;;;;5042843;28;20032;-56
2023/01/17 02:06:56;;;;;;;10.95;6.63;;;5.50;85.00;;;;;;5057130;28;20048;-52
2023/01/17 02:09:23;;;;;;;8.95;6.63;;;5.50;85.20;;;;;;5049447;28;20029;-52
2023/01/17 02:11:49;;;;;;;9.65;6.85;;;5.50;85.40;;;;;;5045251;28;20478;-56
2023/01/17 02:14:16;;;;;;;10.95;7.50;;;5.50;85.50;;;;;;5041210;28;20025;-56
2023/01/17 02:17:01;;;;;;;12.05;7.40;;;5.50;85.50;;;;;;5049184;28;20117;-50
2023/01/17 02:19:35;;;;;;;11.68;8.07;;;5.50;85.40;;;;;;5046918;28;20388;-53
2023/01/17 02:22:19;;;;;;;14.63;8.70;;;5.50;85.30;;;;;;5054201;28;20025;-53
2023/01/17 02:25:21;;;;;;;12.70;8.60;;;5.50;85.20;;;;;;5039348;28;20611;-50
2023/01/17 02:28:12;;;;;;;10.95;7.95;;;5.50;85.00;;;;;;5046408;28;20046;-59
2023/01/17 02:30:52;;;;;;;13.85;9.00;;;5.40;84.90;;;;;;5013112;28;20475;-51
2023/01/17 02:33:32;;;;;;;14.50;9.60;;;5.40;85.10;;;;;;5042039;28;20431;-51
2023/01/17 02:36:16;;;;;;;11.13;8.32;;;5.30;85.30;;;;;;5043687;28;20035;-57
2023/01/17 02:38:42;;;;;;;12.85;8.50;;;5.30;85.60;;;;;;5047279;28;20025;-57
2023/01/17 02:41:37;;;;;;;14.15;9.32;;;5.30;85.90;;;;;;5050998;28;20021;-55
2023/01/17 02:44:06;;;;;;;17.63;10.88;;;5.30;85.80;;;;;;5049930;28;20204;-53
2023/01/17 02:46:32;;;;;;;14.65;9.60;;;5.30;86.20;;;;;;5040670;28;20574;-53
2023/01/17 02:48:59;;;;;;;13.75;10.38;;;5.30;86.30;;;;;;5061383;28;20132;-56
2023/01/17 02:51:37;;;;;;;13.00;9.75;;;5.30;87.30;;;;;;5048936;28;20021;-53
2023/01/17 02:54:15;;;;;;;13.80;9.65;;;5.30;86.80;;;;;;5037406;28;20444;-54
2023/01/17 02:56:40;;;;;;;17.40;11.68;;;5.40;87.10;;;;;;5053784;28;20182;-52
2023/01/17 02:59:30;;;;;;;14.63;10.68;;;5.50;87.40;;;;;;5036252;28;20119;-54
2023/01/17 03:02:10;;;;;;;18.90;12.00;;;5.60;87.50;;;;;;5048743;28;20522;-53
2023/01/17 03:04:57;;;;;;;14.90;10.85;;;5.70;87.40;;;;;;5038658;28;20033;-52
2023/01/17 03:07:26;;;;;;;16.55;11.65;;;5.80;87.30;;;;;;5049281;28;20129;-52
2023/01/17 03:09:58;;;;;;;15.00;10.90;;;5.80;87.20;;;;;;5044813;28;20025;-51
2023/01/17 03:12:26;;;;;;;15.13;10.38;;;5.90;87.10;;;;;;5043008;28;20685;-52
2023/01/17 03:14:52;;;;;;;18.65;12.77;;;6.00;87.20;;;;;;5051433;28;20450;-51
2023/01/17 03:17:18;;;;;;;17.45;11.60;;;6.00;86.80;;;;;;5049590;28;20070;-55
2023/01/17 03:19:43;;;;;;;15.27;10.02;;;6.10;86.70;;;;;;5043827;28;20022;-53
2023/01/17 03:22:09;;;;;;;16.25;11.20;;;6.10;86.50;;;;;;5053140;28;20033;-52
2023/01/17 03:24:35;;;;;;;15.88;11.30;;;6.20;86.30;;;;;;5046740;28;20438;-53
2023/01/17 03:27:00;;;;;;;19.00;11.80;;;6.20;86.10;;;;;;5050325;28;20094;-50
2023/01/17 03:29:26;;;;;;;19.23;13.02;;;6.20;85.90;;;;;;5051331;28;20090;-53
2023/01/17 03:31:51;;;;;;;18.00;12.02;;;6.20;85.80;;;;;;5049506;28;20379;-54
2023/01/17 03:34:17;;;;;;;16.02;11.65;;;6.20;85.70;;;;;;5046367;28;20033;-54
2023/01/17 03:36:43;;;;;;;14.70;10.55;;;6.20;85.80;;;;;;5053880;28;20028;-52
2023/01/17 03:39:08;;;;;;;19.73;12.95;;;6.20;85.90;;;;;;5052032;28;20033;-51
2023/01/17 03:41:34;;;;;;;20.17;12.90;;;6.20;86.00;;;;;;5052782;28;20110;-53
2023/01/17 03:44:00;;;;;;;17.80;12.80;;;6.30;85.90;;;;;;5047561;28;20050;-52
2023/01/17 03:46:27;;;;;;;17.63;12.35;;;6.30;86.00;;;;;;5052570;28;20024;-53
2023/01/17 03:48:53;;;;;;;12.40;10.18;;;6.30;85.90;;;;;;5053527;28;20375;-53
2023/01/17 03:51:19;;;;;;;13.63;10.57;;;6.30;85.90;;;;;;5046007;28;20032;-52
2023/01/17 03:53:45;;;;;;;15.57;11.40;;;6.30;86.00;;;;;;5050966;28;20037;-54
2023/01/17 03:56:12;;;;;;;14.55;11.00;;;6.30;86.00;;;;;;5054713;28;20429;-52
2023/01/17 03:58:38;;;;;;;17.80;11.75;;;6.30;86.00;;;;;;5052158;28;20028;-53
2023/01/17 04:01:04;;;;;;;16.42;10.82;;;6.40;86.00;;;;;;5051625;28;20025;-57
2023/01/17 04:03:30;;;;;;;16.67;12.63;;;6.40;85.90;;;;;;5050401;28;20386;-56
2023/01/17 04:05:55;;;;;;;17.80;11.00;;;6.40;85.80;;;;;;5048438;28;20088;-52
2023/01/17 04:08:21;;;;;;;17.35;11.93;;;6.40;85.80;;;;;;5053151;28;20091;-51
2023/01/17 04:10:47;;;;;;;18.75;12.60;;;6.40;85.80;;;;;;5049678;28;20029;-56
2023/01/17 04:13:13;;;;;;;18.33;12.15;;;6.40;85.80;;;;;;5052068;28;20033;-56
2023/01/17 04:15:39;;;;;;;17.35;12.23;;;6.40;85.80;;;;;;5049915;28;20032;-56
2023/01/17 04:18:05;;;;;;;18.33;13.30;;;6.40;85.90;;;;;;5053642;28;20063;-56
2023/01/17 04:20:34;;;;;;;18.98;13.05;;;6.40;85.40;;;;;;5052092;28;20033;-58
2023/01/17 04:23:00;;;;;;;17.60;11.98;;;6.30;84.80;;;;;;5056755;28;20095;-60
2023/01/17 04:25:28;;;;;;;19.48;12.35;;;6.20;84.60;;;;;;5048303;28;20476;-53
2023/01/17 04:27:54;;;;;;;18.85;13.02;;;6.10;84.80;;;;;;5047093;28;20029;-52
2023/01/17 04:30:20;;;;;;;16.08;11.48;;;5.90;84.80;;;;;;5051202;28;20086;-57
2023/01/17 04:32:46;;;;;;;19.77;13.15;;;5.80;85.10;;;;;;5045815;28;20034;-58
2023/01/17 04:35:11;;;;;;;21.85;13.07;;;5.80;85.50;;;;;;5043147;28;20071;-57
2023/01/17 04:37:37;;;;;;;15.15;11.15;;;5.70;85.70;;;;;;5052472;28;20029;-56
2023/01/17 04:40:04;;;;;;;16.15;11.60;;;5.70;86.00;;;;;;5051523;28;20033;-56
2023/01/17 04:42:30;;;;;;;17.65;11.85;;;5.60;86.20;;;;;;5052502;28;20426;-57
2023/01/17 04:44:55;;;;;;;17.55;12.40;;;5.60;86.40;;;;;;5045354;28;20029;-56
2023/01/17 04:47:21;;;;;;;15.82;11.45;;;5.60;86.60;;;;;;5054867;28;20054;-48
2023/01/17 04:49:47;;;;;;;15.77;11.13;;;5.60;86.80;;;;;;5063356;28;20428;-50
2023/01/17 04:52:13;;;;;;;17.98;11.27;;;5.60;86.70;;;;;;5048508;28;20022;-53
2023/01/17 04:54:40;;;;;;;14.02;10.38;;;5.60;86.70;;;;;;5044057;28;20055;-53
2023/01/17 04:57:06;;;;;;;17.70;11.27;;;5.60;86.90;;;;;;5052735;28;20029;-53
2023/01/17 04:59:31;;;;;;;15.20;11.15;;;5.60;87.00;;;;;;5051045;28;20024;-52
2023/01/17 05:01:57;;;;;;;15.32;10.90;;;5.70;86.90;;;;;;5043817;28;20349;-54
2023/01/17 05:04:23;;;;;;;18.92;12.20;;;5.70;86.90;;;;;;5042316;28;20030;-53
2023/01/17 05:06:48;;;;;;;21.55;13.68;;;5.70;86.60;;;;;;5046134;28;20041;-60
2023/01/17 05:09:14;;;;;;;20.42;12.93;;;5.70;86.70;;;;;;5047889;28;20032;-59
2023/01/17 05:11:39;;;;;;;18.10;12.65;;;5.70;86.80;;;;;;5047522;28;20463;-56
2023/01/17 05:14:05;;;;;;;17.55;12.57;;;5.60;86.80;;;;;;5047982;28;20490;-57
2023/01/17 05:16:31;;;;;;;16.08;11.43;;;5.60;86.90;;;;;;5054171;28;20069;-60
2023/01/17 05:18:56;;;;;;;13.65;10.27;;;5.70;86.90;;;;;;5052400;28;20028;-58
2023/01/17 05:21:22;;;;;;;17.13;12.13;;;5.60;86.90;;;;;;5050932;28;20028;-53
2023/01/17 05:23:48;;;;;;;20.23;13.27;;;5.60;87.10;;;;;;5043036;28;20469;-53
2023/01/17 05:26:14;;;;;;;20.70;14.35;;;5.60;87.10;;;;;;5059969;28;20028;-54
2023/01/17 05:28:39;;;;;;;19.95;13.77;;;5.60;87.50;;;;;;5051854;28;20033;-52
2023/01/17 05:31:05;;;;;;;18.80;13.60;;;5.60;87.70;;;;;;5044538;28;20047;-52
2023/01/17 05:33:31;;;;;;;18.70;12.98;;;5.70;88.20;;;;;;5054228;28;20459;-50
2023/01/17 05:35:57;;;;;;;17.13;12.45;;;5.70;88.60;;;;;;5057774;28;20033;-51
2023/01/17 05:38:22;;;;;;;21.77;15.23;;;5.80;88.90;;;;;;5050993;28;20051;-49
2023/01/17 05:40:48;;;;;;;18.00;12.80;;;5.90;89.00;;;;;;5041519;28;20029;-48
2023/01/17 05:43:14;;;;;;;21.88;14.65;;;6.00;88.90;;;;;;5036403;28;20124;-53
2023/01/17 05:45:40;;;;;;;16.77;12.27;;;6.10;88.70;;;;;;5047425;28;20398;-56
2023/01/17 05:48:06;;;;;;;19.58;13.75;;;6.20;88.60;;;;;;5052124;28;20046;-55
2023/01/17 05:50:34;;;;;;;22.27;14.30;;;6.20;88.50;;;;;;5040816;28;20116;-56
2023/01/17 05:53:11;;;;;;;19.50;13.50;;;6.30;88.30;;;;;;5037511;28;20044;-56
2023/01/17 05:55:38;;;;;;;20.85;13.30;;;6.30;87.90;;;;;;5046065;28;20028;-58
2023/01/17 05:58:04;;;;;;;16.38;12.48;;;6.40;87.90;;;;;;5046241;28;20373;-57
2023/01/17 06:00:31;;;;;;;16.27;11.10;;;6.40;87.70;;;;;;5060590;28;20111;-57
2023/01/17 06:02:58;;;;;;;18.42;13.43;;;6.50;87.70;;;;;;5045732;28;20029;-58
2023/01/17 06:05:25;;;;;;;16.35;12.27;;;6.50;87.70;;;;;;5057713;28;20029;-60
2023/01/17 06:07:51;;;;;;;20.85;13.38;;;6.50;87.50;;;;;;5044379;28;20043;-61
2023/01/17 06:10:19;;;;;;;16.75;11.88;;;6.60;87.40;;;;;;5043552;28;20060;-62
2023/01/17 06:12:45;;;;;;;18.35;12.40;;;6.60;88.00;;;;;;5037884;28;20056;-62
2023/01/17 06:15:13;;;;;;;18.08;12.23;;;6.60;87.20;;;;;;5035044;28;20032;-61
2023/01/17 06:17:39;;;;;;;16.90;12.82;;;6.70;87.70;;;;;;5037416;28;20414;-62
2023/01/17 06:20:07;;;;;;;14.25;10.90;;;6.70;86.90;;;;;;5033766;28;20033;-61
2023/01/17 06:22:33;;;;;;;17.58;11.50;;;6.80;86.80;;;;;;5040156;28;20487;-61
2023/01/17 06:24:58;;;;;;;15.98;11.25;;;6.80;86.60;;;;;;5034028;28;20172;-61
2023/01/17 06:27:25;;;;;;;14.88;10.85;;;6.80;86.40;;;;;;5045415;28;20033;-49
2023/01/17 06:29:50;;;;;;;17.80;13.25;;;6.80;86.40;;;;;;5036363;28;20162;-48
2023/01/17 06:32:16;;;;;;;16.13;11.80;;;6.80;86.20;;;;;;5044956;28;20500;-62
2023/01/17 06:34:41;;;;;;;15.00;10.98;;;6.80;86.10;;;;;;5039239;28;20029;-60
2023/01/17 06:37:07;;;;;;;17.50;12.38;;;6.80;86.10;;;;;;5045722;28;20123;-60
2023/01/17 06:39:33;;;;;;;14.13;11.18;;;6.90;86.20;;;;;;5046713;28;20035;-59
2023/01/17 06:41:59;;;;;;;18.75;12.68;;;6.90;86.30;;;;;;5033942;28;20463;-45
2023/01/17 06:44:31;;;;;;;16.25;11.32;;;6.90;85.90;;;;;;5042798;28;20053;-52
2023/01/17 06:46:57;;;;;;;16.20;11.93;;;6.90;85.90;;;;;;5036006;28;20095;-49
2023/01/17 06:49:23;;;;;;;15.30;11.52;;;7.00;85.90;;;;;;5035406;28;20649;-54
2023/01/17 06:51:49;;;;;;;17.52;12.57;;;7.00;85.70;;;;;;5030052;28;20056;-49
2023/01/17 06:54:15;;;;;;;17.13;11.80;;;7.00;85.60;;;;;;5040330;28;20036;-52
2023/01/17 06:56:41;;;;;;;14.43;10.57;;;7.00;85.50;;;;;;5036755;28;20446;-53
2023/01/17 06:59:06;;;;;;;14.88;11.32;;;7.00;85.40;;;;;;5034584;28;20028;-51
2023/01/17 07:01:32;;;;;;;14.93;11.18;;;7.10;85.60;;;;;;5037048;28;20788;-55
2023/01/17 07:03:59;;;;;;;19.15;12.55;;;7.10;85.50;;;;;;5033914;28;20041;-54
2023/01/17 07:06:27;;;;;;;13.75;10.57;;;7.10;85.40;;;;;;5037460;28;20109;-54
2023/01/17 07:08:54;;;;;;;19.00;11.77;;;7.20;85.40;;;;;;5031815;28;20045;-54
2023/01/17 07:11:21;;;;;;;16.20;11.05;;;7.20;85.40;;;;;;5034324;28;20118;-55
2023/01/17 07:13:46;;;;;;;14.43;10.98;;;7.30;85.40;;;;;;5035051;28;20387;-54
2023/01/17 07:16:12;;;;;;;16.50;12.13;;;7.30;85.20;;;;;;5034176;28;20035;-56
2023/01/17 07:18:38;;;;;;;18.42;12.63;;;7.40;85.10;;;;;;5035061;28;20059;-56
2023/01/17 07:21:04;;;;;;;15.88;11.52;;;7.40;84.80;;;;;;5031309;28;20083;-60
2023/01/17 07:23:29;;;;;;;17.23;11.63;;;7.40;84.60;;;;;;5031915;28;20071;-60
2023/01/17 07:25:57;;;;;;;17.13;11.68;;;7.40;84.60;;;;;;5027167;28;20102;-61
2023/01/17 07:28:24;;;;;;;15.27;10.80;;;7.40;84.40;;;;;;5041515;28;20147;-59
2023/01/17 07:30:50;;;;;;;14.05;11.13;;;7.50;84.40;;;;;;5034159;28;20045;-59
2023/01/17 07:33:17;;;;;;;14.35;9.68;;;7.50;84.30;;;;;;5027417;28;20033;-60
2023/01/17 07:35:43;;;;;;;14.68;10.88;;;7.50;84.00;;;;;;5033948;28;20050;-61
2023/01/17 07:38:17;;;;;;;17.10;12.30;;;7.60;84.00;;;;;;5032349;28;20098;-61
2023/01/17 07:40:43;;;;;;;17.67;12.40;;;7.60;83.90;;;;;;5036905;28;20040;-60
2023/01/17 07:43:15;;;;;;;16.55;12.07;;;7.60;83.40;;;;;;5030423;28;20056;-55
2023/01/17 07:45:49;;;;;;;17.58;12.98;;;7.60;82.70;;;;;;5016068;28;20024;-58
2023/01/17 07:48:16;;;;;;;17.35;12.27;;;7.50;82.30;;;;;;5023162;28;20041;-58
2023/01/17 07:50:41;;;;;;;17.70;12.25;;;7.50;82.10;;;;;;5023555;28;20028;-58
2023/01/17 07:53:07;;;;;;;19.52;13.60;;;7.40;81.90;;;;;;5025108;28;20489;-59
2023/01/17 07:55:33;;;;;;;18.15;12.85;;;7.30;81.70;;;;;;5036109;28;20399;-58
2023/01/17 07:57:59;;;;;;;15.13;12.05;;;7.20;81.70;;;;;;5024762;28;20306;-58
2023/01/17 08:00:26;;;;;;;17.13;12.68;;;7.10;82.00;;;;;;5023740;28;20040;-59
2023/01/17 08:02:56;;;;;;;17.05;12.68;;;7.00;82.00;;;;;;5028026;28;20036;-58
2023/01/17 08:05:22;;;;;;;19.85;12.88;;;6.90;82.30;;;;;;5011826;28;20052;-58
2023/01/17 08:07:47;;;;;;;14.45;11.75;;;6.90;82.80;;;;;;5027890;28;20616;-60
2023/01/17 08:10:16;;;;;;;18.17;11.93;;;6.80;83.00;;;;;;5028792;28;20026;-60
2023/01/17 08:12:46;;;;;;;18.65;12.95;;;6.80;83.30;;;;;;5013440;28;20033;-60
2023/01/17 08:15:12;;;;;;;16.35;11.23;;;6.90;83.50;;;;;;5011572;28;21714;-61
2023/01/17 08:17:37;;;;;;;17.88;12.13;;;6.90;83.50;;;;;;5017947;28;21005;-62
2023/01/17 08:20:05;;;;;;;14.63;11.35;;;7.00;83.40;;;;;;5022263;28;20029;-58
2023/01/17 08:22:30;;;;;;;17.10;11.93;;;7.00;83.50;;;;;;5011333;28;20558;-58
2023/01/17 08:24:56;;;;;;;19.05;12.57;;;7.10;83.40;;;;;;5016524;28;20103;-63
2023/01/17 08:27:22;;;;;;;18.08;12.32;;;7.10;83.40;;;;;;5022432;28;20061;-62
2023/01/17 08:29:48;;;;;;;14.93;11.23;;;7.20;83.40;;;;;;5028099;28;20040;-62
2023/01/17 08:32:14;;;;;;;16.00;10.93;;;7.20;83.30;;;;;;5028045;28;20150;-61
2023/01/17 08:34:40;;;;;;;15.98;11.73;;;7.30;83.30;;;;;;5022144;28;20075;-66
2023/01/17 08:37:06;;;;;;;14.73;10.60;;;7.30;83.30;;;;;;5020167;28;20966;-61
2023/01/17 08:39:32;;;;;;;15.57;11.40;;;7.40;83.10;;;;;;5022972;28;20033;-59
2023/01/17 08:41:57;;;;;;;14.60;11.27;;;7.50;82.90;;;;;;5013983;28;20533;-59
2023/01/17 08:44:23;;;;;;;16.92;11.93;;;7.50;82.80;;;;;;5015679;28;20551;-58
2023/01/17 08:46:49;;;;;;;16.00;11.60;;;7.50;83.20;;;;;;5019909;28;20040;-59
2023/01/17 08:49:14;;;;;;;16.35;11.38;;;7.50;82.50;;;;;;5017593;28;20037;-60
2023/01/17 08:51:40;;;;;;;17.63;12.95;;;7.50;82.60;;;;;;5018727;28;20033;-57
2023/01/17 08:54:06;;;;;;;19.10;12.60;;;7.50;82.50;;;;;;5015886;28;20037;-57
2023/01/17 08:56:32;;;;;;;16.33;11.52;;;7.50;82.60;;;;;;5004448;28;20385;-58
2023/01/17 08:58:57;;;;;;;17.45;12.70;;;7.60;82.60;;;;;;5008721;28;20048;-58
2023/01/17 09:01:23;;;;;;;20.80;13.40;;;7.60;82.70;;;;;;5016544;28;20965;-58
2023/01/17 09:03:50;;;;;;;18.60;12.60;;;7.60;82.80;;;;;;5010670;28;21054;-58
2023/01/17 09:06:16;;;;;;;20.95;14.27;;;7.60;82.80;;;;;;5013910;28;20029;-62
2023/01/17 09:08:45;;;;;;;16.50;12.02;;;7.60;82.70;;;;;;5030400;28;20542;-57
2023/01/17 09:11:13;;;;;;;15.90;12.05;;;7.60;82.60;;;;;;5019966;28;20075;-61
2023/01/17 09:13:39;;;;;;;16.10;11.73;;;7.60;82.60;;;;;;5010218;28;20029;-58
2023/01/17 09:16:06;;;;;;;17.30;11.43;;;7.70;82.70;;;;;;5023937;28;20093;-57
2023/01/17 09:18:32;;;;;;;18.08;12.27;;;7.70;82.60;;;;;;5022398;28;20044;-57
2023/01/17 09:20:59;;;;;;;17.38;12.23;;;7.80;82.60;;;;;;5029797;28;20029;-57
2023/01/17 09:23:26;;;;;;;15.68;12.48;;;7.80;82.60;;;;;;5018735;28;20038;-57
2023/01/17 09:25:58;;;;;;;15.70;11.77;;;7.90;82.70;;;;;;5015962;28;20155;-55
2023/01/17 09:28:25;;;;;;;17.00;12.55;;;7.90;82.50;;;;;;5009878;28;20095;-57
2023/01/17 09:30:52;;;;;;;19.00;13.32;;;7.90;82.40;;;;;;5019978;28;20036;-58
2023/01/17 09:33:18;;;;;;;14.20;10.55;;;7.90;82.30;;;;;;5031639;28;20641;-56
2023/01/17 09:35:45;;;;;;;17.15;12.23;;;7.90;82.30;;;;;;5034824;28;20029;-58
2023/01/17 09:38:12;;;;;;;22.25;13.98;;;7.90;82.30;;;;;;5028248;28;20028;-58
2023/01/17 09:40:42;;;;;;;17.25;12.30;;;7.90;82.20;;;;;;5016444;28;20036;-59
2023/01/17 09:43:22;;;;;;;21.08;13.10;;;8.00;82.20;;;;;;5025293;28;20057;-58
2023/01/17 09:45:48;;;;;;;16.40;12.20;;;8.00;82.00;;;;;;5025730;28;20539;-57
2023/01/17 09:48:23;;;;;;;18.38;12.18;;;7.90;81.90;;;;;;5041931;28;20967;-58
2023/01/17 09:50:56;;;;;;;16.35;11.52;;;7.90;81.90;;;;;;5009198;28;20029;-58
2023/01/17 09:53:22;;;;;;;17.73;11.65;;;8.00;82.00;;;;;;5022053;28;20044;-58
2023/01/17 09:56:01;;;;;;;17.23;12.02;;;7.90;82.00;;;;;;5026678;28;20040;-57
2023/01/17 09:59:10;;;;;;;15.63;11.27;;;8.00;82.00;;;;;;5024029;28;20404;-57
2023/01/17 10:01:51;;;;;;;20.60;13.52;;;8.00;82.00;;;;;;5023571;28;20851;-58
2023/01/17 10:04:23;;;;;;;22.07;14.07;;;7.90;82.00;;;;;;5015151;28;20597;-58
2023/01/17 10:06:54;;;;;;;;;;;8.00;82.00;;;;;;5007616;28;20301;-59
2023/01/17 10:09:25;;;;;;;16.38;12.73;;;7.90;82.00;;;;;;5023223;28;19913;-59
2023/01/17 10:12:21;;;;;;;15.60;11.55;;;7.90;82.00;;;;;;5006469;28;20040;-59
2023/01/17 10:15:27;;;;;;;19.52;13.13;;;8.00;82.00;;;;;;5023434;28;20038;-58
2023/01/17 10:18:15;;;;;;;16.63;12.73;;;8.00;82.10;;;;;;5023298;28;20460;-58
2023/01/17 10:21:09;;;;;;;16.50;11.88;;;8.00;82.20;;;;;;5022795;28;20730;-58
2023/01/17 10:24:12;;;;;;;17.13;11.27;;;8.00;82.10;;;;;;5021892;28;20059;-58
2023/01/17 10:26:38;;;;;;;18.27;13.10;;;8.00;82.00;;;;;;4978830;28;20045;-58
2023/01/17 10:29:12;;;;;;;17.38;12.80;;;8.00;82.20;;;;;;5025861;28;20040;-58
2023/01/17 10:31:50;;;;;;;19.45;13.18;;;8.00;82.30;;;;;;5020356;28;20033;-59
2023/01/17 10:34:40;;;;;;;20.55;13.88;;;8.10;82.80;;;;;;5025709;28;20033;-59
2023/01/17 10:37:24;;;;;;;19.55;13.00;;;8.10;82.00;;;;;;5021097;28;20040;-59
2023/01/17 10:39:53;;;;;;;21.33;15.27;;;8.10;81.50;;;;;;5009534;28;20038;-59
2023/01/17 10:42:51;;;;;;;24.33;14.95;;;8.00;81.10;;;;;;5010769;28;20140;-59
2023/01/17 10:45:27;;;;;;;20.33;14.52;;;7.90;81.00;;;;;;5006711;28;20148;-58
2023/01/17 10:48:27;;;;;;;19.40;13.02;;;7.90;81.40;;;;;;5024091;28;20033;-59
2023/01/17 10:51:21;;;;;;;22.40;14.80;;;7.80;81.80;;;;;;5024063;28;20481;-58
2023/01/17 10:53:53;;;;;;;22.50;14.88;;;7.80;82.20;;;;;;5018577;28;20600;-58
2023/01/17 10:56:24;;;;;;;18.15;13.57;;;7.80;82.50;;;;;;5013706;28;20033;-59
2023/01/17 10:59:06;;;;;;;19.42;13.88;;;7.80;83.30;;;;;;5017610;28;20727;-59
2023/01/17 11:01:32;;;;;;;19.80;13.60;;;7.90;82.80;;;;;;5010881;28;20029;-59
2023/01/17 11:03:58;;;;;;;23.13;14.90;;;7.90;82.70;;;;;;5020679;28;20099;-59
2023/01/17 11:06:25;;;;;;;22.25;14.48;;;8.00;82.80;;;;;;5010805;28;20501;-59
2023/01/17 11:08:59;;;;;;;23.00;14.68;;;8.00;82.70;;;;;;5020074;28;20491;-59
2023/01/17 11:11:32;;;;;;;20.83;14.57;;;8.10;82.60;;;;;;5008345;28;20030;-58
2023/01/17 11:14:02;;;;;;;18.20;12.38;;;8.10;82.60;;;;;;4993820;28;20084;-59
2023/01/17 11:16:30;;;;;;;19.52;13.82;;;8.10;82.40;;;;;;5015812;28;21473;-59
2023/01/17 11:19:17;;;;;;;19.52;13.00;;;8.20;82.40;;;;;;5008690;28;20041;-59
2023/01/17 11:21:53;;;;;;;21.52;14.73;;;8.20;82.30;;;;;;5011275;28;20116;-59
2023/01/17 11:24:44;;;;;;;20.73;13.80;;;8.20;82.20;;;;;;5017556;28;20127;-58
2023/01/17 11:27:23;;;;;;;24.63;15.98;;;8.20;82.10;;;;;;5001370;28;20048;-60
2023/01/17 11:30:03;;;;;;;20.40;13.90;;;8.30;82.00;;;;;;4999291;28;20088;-59
2023/01/17 11:32:32;;;;;;;22.25;14.80;;;8.30;81.90;;;;;;4999332;28;20157;-59
2023/01/17 11:35:12;;;;;;;21.15;13.85;;;8.30;82.20;;;;;;5000557;28;20037;-59
2023/01/17 11:37:50;;;;;;;18.80;13.17;;;8.30;81.70;;;;;;5007967;28;20044;-59
2023/01/17 11:40:25;;;;;;;20.10;14.25;;;8.40;82.00;;;;;;5007959;28;20033;-57
2023/01/17 11:43:08;;;;;;;23.90;16.77;;;8.40;81.90;;;;;;5012070;28;20052;-59
2023/01/17 11:45:34;;;;;;;18.20;13.05;;;8.40;81.70;;;;;;5018561;28;20036;-58
2023/01/17 11:48:11;;;;;;;25.20;16.30;;;8.40;81.80;;;;;;5020336;28;20052;-58
2023/01/17 11:50:40;;;;;;;18.75;13.40;;;8.40;81.80;;;;;;5025605;28;20071;-57
2023/01/17 11:53:25;;;;;;;20.38;14.85;;;8.40;81.70;;;;;;5030795;28;20702;-58
2023/01/17 11:56:22;;;;;;;18.08;13.52;;;8.40;81.70;;;;;;5024004;28;20040;-58
2023/01/17 11:58:47;;;;;;;22.80;15.27;;;8.40;81.60;;;;;;5021014;28;20044;-57
2023/01/17 12:01:35;;;;;;;19.20;13.57;;;8.50;81.70;;;;;;5020006;28;20033;-58
2023/01/17 12:04:23;;;;;;;20.85;14.82;;;8.50;81.70;;;;;;5012632;28;20037;-57
2023/01/17 12:07:03;;;;;;;19.33;12.75;;;8.40;81.60;;;;;;5016030;28;20034;-58
2023/01/17 12:09:54;;;;;;;18.40;13.20;;;8.50;81.70;;;;;;5009422;28;20041;-58
2023/01/17 12:15:38;;;;;;;18.20;12.82;;;8.50;81.90;;;;;;5010049;28;20950;-59
2023/01/17 12:18:24;;;;;;;19.63;12.77;;;8.50;81.90;;;;;;5022363;28;20048;-58
2023/01/17 12:21:16;;;;;;;21.92;14.63;;;8.50;81.90;;;;;;5001580;28;20132;-58
2023/01/17 12:24:03;;;;;;;21.92;14.50;;;8.60;81.80;;;;;;5010125;28;20029;-57
2023/01/17 12:27:33;;;;;;;22.15;13.57;;;8.50;81.70;;;;;;5018211;28;20717;-57
2023/01/17 12:30:14;;;;;;;27.08;16.13;;;8.50;81.60;;;;;;4947604;28;20042;-58
2023/01/17 12:33:20;;;;;;;22.77;15.98;;;8.50;81.50;;;;;;4948262;28;20694;-56
2023/01/17 12:35:54;;;;;;;21.70;15.15;;;8.50;81.10;;;;;;4996070;28;20065;-57
2023/01/17 12:38:33;;;;;;;21.13;14.38;;;8.40;81.30;;;;;;5034536;28;20747;-54
2023/01/17 12:41:25;;;;;;;20.90;14.98;;;8.30;81.10;;;;;;5025070;28;20034;-59
2023/01/17 12:43:58;;;;;;;23.48;14.95;;;8.20;81.20;;;;;;5027073;28;20212;-60
2023/01/17 12:46:41;;;;;;;18.38;14.25;;;8.20;81.80;;;;;;5010048;28;20110;-58
2023/01/17 12:49:25;;;;;;;22.85;14.00;;;8.20;82.00;;;;;;5004227;28;20052;-60
2023/01/17 12:52:03;;;;;;;22.75;15.63;;;8.20;82.20;;;;;;5013216;28;20033;-59
2023/01/17 12:54:41;;;;;;;23.15;16.35;;;8.20;82.40;;;;;;5015312;28;21004;-59
2023/01/17 12:57:19;;;;;;;19.10;14.60;;;8.20;82.40;;;;;;5025445;28;20103;-58
2023/01/17 13:00:09;;;;;;;22.83;15.20;;;8.30;82.50;;;;;;5017692;28;20039;-60
2023/01/17 13:02:49;;;;;;;24.40;16.08;;;8.30;82.50;;;;;;5003229;28;20733;-59
2023/01/17 13:05:32;;;;;;;24.55;17.38;;;8.30;82.50;;;;;;5015544;28;20047;-62
2023/01/17 13:08:23;;;;;;;23.33;16.38;;;8.30;82.50;;;;;;5009409;28;20037;-59
2023/01/17 13:10:53;;;;;;;24.17;15.98;;;8.30;82.40;;;;;;5022031;28;20028;-60
2023/01/17 13:13:22;;;;;;;25.08;17.50;;;8.30;82.50;;;;;;5014716;28;20078;-61
2023/01/17 13:15:56;;;;;;;25.83;16.30;;;8.30;82.40;;;;;;5006512;28;20478;-58
2023/01/17 13:18:28;;;;;;;25.55;16.70;;;8.30;82.10;;;;;;5018399;28;20080;-60
2023/01/17 13:21:12;;;;;;;20.30;14.00;;;8.20;82.00;;;;;;5010844;28;20029;-58
2023/01/17 13:24:02;;;;;;;21.50;14.05;;;8.20;82.00;;;;;;5027299;28;20662;-59
2023/01/17 13:27:09;;;;;;;21.23;14.75;;;8.10;82.30;;;;;;5008215;28;20717;-64
2023/01/17 13:29:58;;;;;;;22.05;13.88;;;8.10;82.40;;;;;;4989615;28;20160;-61
2023/01/17 13:32:45;;;;;;;25.90;17.50;;;8.00;82.40;;;;;;5013854;28;20032;-59
2023/01/17 13:35:49;;;;;;;21.27;14.98;;;8.00;81.90;;;;;;5018312;28;20033;-59
2023/01/17 13:38:30;;;;;;;21.48;14.45;;;7.90;81.20;;;;;;5024938;28;20110;-63
2023/01/17 13:41:03;;;;;;;20.77;13.77;;;7.70;81.00;;;;;;5024256;28;20124;-61
2023/01/17 13:44:20;;;;;;;21.73;14.93;;;7.50;81.00;;;;;;5013557;28;20302;-62
2023/01/17 13:46:50;;;;;;;21.73;13.82;;;7.30;81.30;;;;;;5013327;28;20057;-60
2023/01/17 13:49:25;;;;;;;22.52;14.30;;;7.20;82.00;;;;;;5030366;28;20056;-60
2023/01/17 13:52:22;;;;;;;21.02;14.63;;;7.10;82.30;;;;;;5014803;28;20420;-59
2023/01/17 13:54:54;;;;;;;23.52;14.50;;;7.00;82.40;;;;;;5011020;28;20044;-61
2023/01/17 13:57:25;;;;;;;20.90;14.82;;;7.00;82.70;;;;;;5012673;28;20107;-59
2023/01/17 14:00:14;;;;;;;22.10;14.15;;;6.90;82.80;;;;;;5020312;28;20090;-60
2023/01/17 14:02:41;;;;;;;18.30;13.65;;;6.80;82.70;;;;;;5001170;28;20029;-60
2023/01/17 14:05:22;;;;;;;24.15;15.30;;;6.80;83.00;;;;;;5009410;28;20110;-59
2023/01/17 14:07:51;;;;;;;;;;;6.70;83.00;;;;;;5014480;28;20037;-61
2023/01/17 14:10:22;;;;;;;20.23;13.35;;;6.60;82.90;;;;;;5023523;28;19956;-59
2023/01/17 14:12:48;;;;;;;18.42;13.23;;;6.60;83.50;;;;;;5015237;28;20970;-59
2023/01/17 14:15:22;;;;;;;20.45;14.13;;;6.60;83.90;;;;;;5011315;28;20070;-59
2023/01/17 14:18:28;;;;;;;19.67;14.13;;;6.60;84.50;;;;;;5017986;28;20783;-59
2023/01/17 14:21:10;;;;;;;19.38;13.43;;;6.60;85.10;;;;;;5005060;28;20124;-60
2023/01/17 14:23:59;;;;;;;21.27;14.57;;;6.80;86.20;;;;;;5021278;28;21918;-59
2023/01/17 14:26:36;;;;;;;19.10;13.50;;;7.00;86.70;;;;;;5014771;28;20037;-62
2023/01/17 14:29:39;;;;;;;21.80;14.60;;;7.10;87.20;;;;;;5017178;28;20044;-60